createdAt,value
2018-03-23T00:03:01.302Z,94499.16
2018-03-23T00:06:04.582Z,94505.80
2018-03-23T00:09:07.887Z,94503.99
2018-03-23T00:12:11.150Z,94504.05
2018-03-23T00:15:14.463Z,94497.07
2018-03-23T00:18:17.754Z,94500.61
2018-03-23T00:21:22.139Z,94499.34
2018-03-23T00:24:25.437Z,94491.31
2018-03-23T00:27:28.778Z,94486.77
2018-03-23T00:30:32.062Z,94480.75
2018-03-23T00:33:35.744Z,94469.39
2018-03-23T00:36:39.750Z,94461.76
2018-03-23T00:39:43.354Z,94463.34
2018-03-23T00:42:47.061Z,94463.59
2018-03-23T00:45:50.572Z,94465.55
2018-03-23T00:48:54.981Z,94461.63
2018-03-23T00:51:58.557Z,94461.72
2018-03-23T00:55:01.817Z,94461.17
2018-03-23T00:58:05.722Z,94458.63
2018-03-23T01:01:09.511Z,94446.42
2018-03-23T01:04:13.101Z,94446.05
2018-03-23T01:07:17.064Z,94442.32
2018-03-23T01:10:20.351Z,94450.45
2018-03-23T01:13:23.624Z,94443.82
2018-03-23T01:16:28.248Z,94445.05
2018-03-23T01:19:31.739Z,94442.45
2018-03-23T01:22:36.168Z,94447.52
2018-03-23T01:25:39.749Z,94442.95
2018-03-23T01:28:43.797Z,94438.31
2018-03-23T01:31:47.473Z,94442.23
2018-03-23T01:34:51.630Z,94439.42
2018-03-23T01:37:55.235Z,94432.76
2018-03-23T01:40:59.460Z,94431.84
2018-03-23T01:44:02.761Z,94431.45
2018-03-23T01:47:06.664Z,94436.39
2018-03-23T01:50:10.372Z,94428.78
2018-03-23T01:53:31.769Z,94426.42
2018-03-23T01:56:36.511Z,94421.65
2018-03-23T01:59:40.525Z,94417.07
2018-03-23T02:02:43.820Z,94413.91
2018-03-23T02:05:47.138Z,94413.59
2018-03-23T02:08:50.451Z,94405.75
2018-03-23T02:11:53.994Z,94409.13
2018-03-23T02:14:57.252Z,94409.49
2018-03-23T02:18:00.740Z,94402.12
2018-03-23T02:21:04.009Z,94403.39
2018-03-23T02:24:08.068Z,94408.47
2018-03-23T02:27:11.614Z,94404.77
2018-03-23T02:30:15.930Z,94404.38
2018-03-23T02:33:21.449Z,94405.86
2018-03-23T02:36:24.804Z,94404.20
2018-03-23T02:39:28.145Z,94402.16
2018-03-23T02:42:31.458Z,94401.16
2018-03-23T02:45:34.844Z,94399.28
2018-03-23T02:48:38.302Z,94398.59
2018-03-23T02:51:41.732Z,94399.00
2018-03-23T02:54:45.024Z,94400.27
2018-03-23T02:57:48.310Z,94401.18
2018-03-23T03:00:51.887Z,94401.70
2018-03-23T03:03:55.941Z,94397.89
2018-03-23T03:06:59.442Z,94398.17
2018-03-23T03:10:02.727Z,94397.05
2018-03-23T03:13:06.321Z,94383.19
2018-03-23T03:16:09.926Z,94385.41
2018-03-23T03:19:13.977Z,94376.89
2018-03-23T03:22:17.265Z,94377.80
2018-03-23T03:25:20.641Z,94372.05
2018-03-23T03:28:23.962Z,94364.77
2018-03-23T03:31:27.540Z,94374.39
2018-03-23T03:34:31.569Z,94371.46
2018-03-23T03:37:35.089Z,94368.09
2018-03-23T03:40:38.408Z,94369.63
2018-03-23T03:43:41.720Z,94371.09
2018-03-23T03:46:45.061Z,94372.61
2018-03-23T03:49:48.621Z,94365.84
2018-03-23T03:52:51.888Z,94364.39
2018-03-23T03:55:55.190Z,94361.70
2018-03-23T03:58:58.888Z,94364.45
2018-03-23T04:02:02.165Z,94364.36
2018-03-23T04:05:05.570Z,94362.05
2018-03-23T04:08:09.172Z,94364.41
2018-03-23T04:11:12.767Z,94369.31
2018-03-23T04:14:16.797Z,94362.05
2018-03-23T04:17:20.050Z,94361.79
2018-03-23T04:20:23.564Z,94357.20
2018-03-23T04:23:27.012Z,94361.08
2018-03-23T04:26:30.478Z,94353.74
2018-03-23T04:29:34.589Z,94361.19
2018-03-23T04:32:38.096Z,94355.48
2018-03-23T04:35:42.228Z,94355.30
2018-03-23T04:38:46.984Z,94348.75
2018-03-23T04:41:50.537Z,94352.87
2018-03-23T04:44:53.837Z,94348.11
2018-03-23T04:47:57.198Z,94345.11
2018-03-23T04:51:00.579Z,94343.37
2018-03-23T04:54:03.878Z,94345.30
2018-03-23T04:57:07.289Z,94339.70
2018-03-23T05:00:10.770Z,94334.61
2018-03-23T05:03:14.325Z,94327.53
2018-03-23T05:06:18.005Z,94321.13
2018-03-23T05:12:43.418Z,94311.61
2018-03-23T05:15:46.856Z,94315.72
2018-03-23T05:18:51.622Z,94313.53
2018-03-23T05:22:00.226Z,94309.02
2018-03-23T05:25:06.056Z,94313.34
2018-03-23T05:28:14.247Z,94315.95
2018-03-23T05:31:17.706Z,94310.92
2018-03-23T05:34:21.642Z,94316.13
2018-03-23T05:37:25.302Z,94312.68
2018-03-23T05:40:28.941Z,94320.89
2018-03-23T05:43:37.120Z,94315.72
2018-03-23T05:46:41.495Z,94309.94
2018-03-23T05:49:45.779Z,94312.69
2018-03-23T05:52:49.521Z,94313.33
2018-03-23T05:55:52.893Z,94315.14
2018-03-23T05:58:56.333Z,94304.77
2018-03-23T06:01:59.831Z,94305.48
2018-03-23T06:05:03.272Z,94301.84
2018-03-23T06:08:07.205Z,94297.00
2018-03-23T06:11:11.639Z,94299.01
2018-03-23T06:14:16.788Z,94296.17
2018-03-23T06:17:21.183Z,94290.84
2018-03-23T06:20:24.892Z,94287.83
2018-03-23T06:23:28.514Z,94289.86
2018-03-23T06:26:33.273Z,94291.08
2018-03-23T06:29:38.190Z,94287.51
2018-03-23T06:32:41.764Z,94287.23
2018-03-23T06:35:45.042Z,94291.16
2018-03-23T06:38:49.092Z,94290.24
2018-03-23T06:41:52.379Z,94290.67
2018-03-23T06:44:55.655Z,94284.42
2018-03-23T06:47:59.392Z,94284.42
2018-03-23T06:54:23.820Z,94289.20
2018-03-23T06:57:27.943Z,94294.26
2018-03-23T07:00:35.098Z,94293.86
2018-03-23T07:03:39.867Z,94293.70
2018-03-23T07:06:43.272Z,94286.51
2018-03-23T07:09:46.550Z,94289.61
2018-03-23T07:12:49.879Z,94293.71
2018-03-23T07:15:53.262Z,94292.58
2018-03-23T07:18:56.547Z,94289.85
2018-03-23T07:21:59.891Z,94293.81
2018-03-23T07:25:03.201Z,94287.59
2018-03-23T07:28:06.493Z,94290.80
2018-03-23T07:31:09.844Z,94297.84
2018-03-23T07:34:13.104Z,94287.27
2018-03-23T07:37:16.376Z,94291.83
2018-03-23T07:40:19.673Z,94285.09
2018-03-23T07:43:22.925Z,94286.80
2018-03-23T07:46:26.971Z,94284.80
2018-03-23T07:49:30.234Z,94290.66
2018-03-23T07:52:34.252Z,94289.80
2018-03-23T07:55:38.409Z,94290.66
2018-03-23T07:58:41.671Z,94282.38
2018-03-23T08:01:44.933Z,94290.41
2018-03-23T08:04:48.206Z,94289.41
2018-03-23T08:07:51.491Z,94284.56
2018-03-23T08:10:54.775Z,94283.59
2018-03-23T08:13:58.038Z,94290.66
2018-03-23T08:17:02.161Z,94283.72
2018-03-23T08:20:06.252Z,94285.31
2018-03-23T08:23:09.501Z,94277.92
2018-03-23T08:26:12.818Z,94277.77
2018-03-23T08:29:16.138Z,94283.63
2018-03-23T08:32:19.407Z,94282.80
2018-03-23T08:35:22.669Z,94283.09
2018-03-23T08:38:26.689Z,94271.45
2018-03-23T08:41:30.812Z,94270.49
2018-03-23T08:44:34.097Z,94265.09
2018-03-23T08:47:38.235Z,94265.08
2018-03-23T08:50:41.476Z,94263.94
2018-03-23T08:53:44.732Z,94258.81
2018-03-23T08:56:48.077Z,94267.77
2018-03-23T08:59:51.333Z,94257.52
2018-03-23T09:02:54.598Z,94259.78
2018-03-23T09:05:58.647Z,94260.20
2018-03-23T09:09:02.042Z,94254.84
2018-03-23T09:12:05.313Z,94252.71
2018-03-23T09:15:09.470Z,94255.44
2018-03-23T09:18:12.740Z,94242.18
2018-03-23T09:21:16.003Z,94244.10
2018-03-23T09:24:19.436Z,94239.22
2018-03-23T09:27:23.491Z,94245.23
2018-03-23T09:30:26.853Z,94244.14
2018-03-23T09:33:30.121Z,94246.02
2018-03-23T09:36:34.733Z,94243.17
2018-03-23T09:39:38.000Z,94236.81
2018-03-23T09:42:42.129Z,94240.98
2018-03-23T09:45:45.476Z,94241.97
2018-03-23T09:48:49.522Z,94239.67
2018-03-23T09:51:53.708Z,94242.88
2018-03-23T09:54:57.726Z,94249.03
2018-03-23T09:58:01.954Z,94245.56
2018-03-23T10:01:06.061Z,94246.30
2018-03-23T10:04:10.510Z,94239.41
2018-03-23T10:07:13.874Z,94243.34
2018-03-23T10:10:17.219Z,94236.78
2018-03-23T10:13:20.858Z,94233.03
2018-03-23T10:16:24.142Z,94228.80
2018-03-23T10:19:27.533Z,94234.50
2018-03-23T10:22:30.922Z,94230.16
2018-03-23T10:25:34.238Z,94229.59
2018-03-23T10:28:37.520Z,94223.92
2018-03-23T10:31:40.815Z,94219.85
2018-03-23T10:34:44.304Z,94215.59
2018-03-23T10:37:47.582Z,94209.34
2018-03-23T10:40:51.633Z,94209.64
2018-03-23T10:43:54.905Z,94212.02
2018-03-23T10:46:58.932Z,94206.00
2018-03-23T10:50:02.194Z,94209.18
2018-03-23T10:53:05.587Z,94212.41
2018-03-23T10:56:08.886Z,94202.77
2018-03-23T10:59:12.152Z,94198.33
2018-03-23T11:02:20.863Z,94196.35
2018-03-23T11:05:24.132Z,94198.22
2018-03-23T11:08:28.164Z,94198.83
2018-03-23T11:11:32.388Z,94198.80
2018-03-23T11:14:35.649Z,94205.09
2018-03-23T11:17:39.688Z,94203.39
2018-03-23T11:20:42.953Z,94195.69
2018-03-23T11:23:47.602Z,94197.97
2018-03-23T11:26:51.751Z,94200.91
2018-03-23T11:29:55.054Z,94197.11
2018-03-23T11:32:58.316Z,94194.37
2018-03-23T11:36:02.462Z,94194.61
2018-03-23T11:39:05.736Z,94194.17
2018-03-23T11:42:09.171Z,94190.64
2018-03-23T11:45:12.437Z,94183.99
2018-03-23T11:48:15.697Z,94183.34
2018-03-23T11:51:19.025Z,94182.02
2018-03-23T11:54:23.052Z,94175.59
2018-03-23T11:57:26.322Z,94181.30
2018-03-23T12:00:30.341Z,94174.21
2018-03-23T12:03:34.473Z,94180.70
2018-03-23T12:06:37.759Z,94171.59
2018-03-23T12:09:41.792Z,94166.35
2018-03-23T12:12:45.056Z,94160.16
2018-03-23T12:15:48.323Z,94158.50
2018-03-23T12:18:51.865Z,94166.92
2018-03-23T12:21:55.124Z,94154.13
2018-03-23T12:25:02.332Z,94146.38
2018-03-23T12:28:05.797Z,94141.08
2018-03-23T12:31:09.410Z,94138.76
2018-03-23T12:34:13.687Z,94137.53
2018-03-23T12:37:17.704Z,94136.21
2018-03-23T12:40:21.780Z,94133.20
2018-03-23T12:43:25.036Z,94123.00
2018-03-23T12:46:28.316Z,94115.89
2018-03-23T12:49:32.338Z,94118.34
2018-03-23T12:52:36.369Z,94115.38
2018-03-23T12:55:40.406Z,94107.22
2018-03-23T12:58:46.870Z,94105.69
2018-03-23T13:01:50.821Z,94103.73
2018-03-23T13:04:54.852Z,94102.68
2018-03-23T13:07:58.112Z,94097.41
2018-03-23T13:11:01.368Z,94099.03
2018-03-23T13:14:05.405Z,94093.53
2018-03-23T13:17:08.663Z,94080.87
2018-03-23T13:20:13.093Z,94075.48
2018-03-23T13:23:17.119Z,94061.93
2018-03-23T13:26:21.676Z,94056.84
2018-03-23T13:29:24.992Z,94044.73
2018-03-23T13:32:28.347Z,94043.17
2018-03-23T13:35:32.425Z,94036.88
2018-03-23T13:38:35.697Z,94037.19
2018-03-23T13:41:39.284Z,94032.66
2018-03-23T13:44:42.608Z,94029.36
2018-03-23T13:47:47.115Z,94035.86
2018-03-23T13:50:53.568Z,94024.55
2018-03-23T13:53:57.901Z,94023.84
2018-03-23T13:57:02.913Z,94021.23
2018-03-23T14:03:44.293Z,94022.51
2018-03-23T14:06:48.388Z,94018.67
2018-03-23T14:09:51.879Z,94011.51
2018-03-23T14:12:55.830Z,94005.87
2018-03-23T14:16:00.346Z,93997.31
2018-03-23T14:19:04.496Z,93992.02
2018-03-23T14:22:07.817Z,93987.36
2018-03-23T14:25:11.121Z,93992.78
2018-03-23T14:28:14.484Z,93993.60
2018-03-23T14:31:17.807Z,93991.34
2018-03-23T14:34:21.226Z,93989.18
2018-03-23T14:37:24.517Z,93989.80
2018-03-23T14:40:27.828Z,93991.57
2018-03-23T14:43:31.092Z,93982.38
2018-03-23T14:46:34.423Z,93987.86
2018-03-23T14:49:37.698Z,93985.70
2018-03-23T14:52:40.967Z,93974.22
2018-03-23T14:55:44.359Z,93974.72
2018-03-23T14:58:53.102Z,93968.91
2018-03-23T15:01:56.433Z,93963.30
2018-03-23T15:04:59.736Z,93963.48
2018-03-23T15:08:02.998Z,93955.58
2018-03-23T15:11:06.275Z,93956.98
2018-03-23T15:14:19.472Z,93954.68
2018-03-23T15:17:22.892Z,93954.46
2018-03-23T15:20:26.201Z,93946.68
2018-03-23T15:23:29.489Z,93945.54
2018-03-23T15:26:33.116Z,93943.34
2018-03-23T15:29:36.422Z,93936.18
2018-03-23T15:32:39.710Z,93928.05
2018-03-23T15:35:43.057Z,93927.18
2018-03-23T15:38:47.859Z,93923.99
2018-03-23T15:41:51.326Z,93922.36
2018-03-23T15:44:54.595Z,93923.20
2018-03-23T15:47:57.925Z,93922.98
2018-03-23T15:51:01.253Z,93914.95
2018-03-23T15:54:04.504Z,93921.47
2018-03-23T15:57:08.564Z,93917.75
2018-03-23T16:00:11.860Z,93918.14
2018-03-23T16:03:15.197Z,93919.05
2018-03-23T16:06:18.464Z,93909.78
2018-03-23T16:09:21.742Z,93909.02
2018-03-23T16:12:25.121Z,93912.95
2018-03-23T16:15:29.300Z,93901.88
2018-03-23T16:18:32.732Z,93905.13
2018-03-23T16:21:36.765Z,93904.91
2018-03-23T16:24:40.037Z,93902.54
2018-03-23T16:27:44.893Z,93903.34
2018-03-23T16:30:48.161Z,93893.26
2018-03-23T16:33:51.486Z,93892.97
2018-03-23T16:36:54.752Z,93895.37
2018-03-23T16:39:58.117Z,93887.92
2018-03-23T16:43:01.482Z,93895.48
2018-03-23T16:46:04.762Z,93896.44
2018-03-23T16:49:08.812Z,93898.00
2018-03-23T16:52:12.090Z,93891.38
2018-03-23T16:55:16.114Z,93890.95
2018-03-23T16:58:19.470Z,93894.45
2018-03-23T17:01:23.536Z,93889.19
2018-03-23T17:04:26.956Z,93883.19
2018-03-23T17:07:30.301Z,93888.06
2018-03-23T17:10:34.355Z,93891.08
2018-03-23T17:13:37.908Z,93892.58
2018-03-23T17:16:41.170Z,93895.94
2018-03-23T17:19:44.600Z,93893.19
2018-03-23T17:22:47.825Z,93889.04
2018-03-23T17:25:51.877Z,93888.11
2018-03-23T17:28:55.152Z,93884.71
2018-03-23T17:31:58.414Z,93886.33
2018-03-23T17:35:01.975Z,93890.66
2018-03-23T17:38:06.173Z,93889.11
2018-03-23T17:41:09.445Z,93886.95
2018-03-23T17:44:13.591Z,93882.33
2018-03-23T17:47:16.926Z,93882.08
2018-03-23T17:50:20.189Z,93884.77
2018-03-23T17:53:23.467Z,93883.91
2018-03-23T17:56:27.508Z,93888.08
2018-03-23T17:59:30.936Z,93892.17
2018-03-23T18:02:34.807Z,93890.81
2018-03-23T18:05:38.162Z,93890.34
2018-03-23T18:08:42.225Z,93894.21
2018-03-23T18:11:45.666Z,93891.75
2018-03-23T18:14:48.949Z,93892.00
2018-03-23T18:17:52.207Z,93893.18
2018-03-23T18:20:56.541Z,93888.00
2018-03-23T18:24:00.996Z,93888.50
2018-03-23T18:27:04.366Z,93884.02
2018-03-23T18:30:07.780Z,93891.37
2018-03-23T18:33:11.085Z,93893.99
2018-03-23T18:36:14.403Z,93889.28
2018-03-23T18:39:17.724Z,93890.20
2018-03-23T18:42:20.997Z,93890.66
2018-03-23T18:45:24.272Z,93899.94
2018-03-23T18:48:27.528Z,93896.92
2018-03-23T18:51:30.793Z,93904.41
2018-03-23T18:54:34.077Z,93900.00
2018-03-23T18:57:37.364Z,93899.33
2018-03-23T19:00:40.650Z,93907.58
2018-03-23T19:03:43.969Z,93903.41
2018-03-23T19:06:47.316Z,93906.48
2018-03-23T19:09:51.695Z,93908.42
2018-03-23T19:12:55.269Z,93895.98
2018-03-23T19:15:58.601Z,93897.70
2018-03-23T19:19:01.982Z,93896.93
2018-03-23T19:22:05.363Z,93896.77
2018-03-23T19:25:09.480Z,93895.24
2018-03-23T19:28:12.753Z,93893.61
2018-03-23T19:31:16.031Z,93887.58
2018-03-23T19:34:19.348Z,93887.05
2018-03-23T19:37:23.386Z,93885.67
2018-03-23T19:40:27.415Z,93878.70
2018-03-23T19:43:30.670Z,93882.02
2018-03-23T19:46:34.781Z,93885.25
2018-03-23T19:49:38.195Z,93881.70
2018-03-23T19:52:42.347Z,93881.47
2018-03-23T19:55:45.642Z,93886.39
2018-03-23T19:58:48.913Z,93879.45
2018-03-23T20:01:52.951Z,93881.75
2018-03-23T20:04:56.520Z,93879.48
2018-03-23T20:08:00.562Z,93882.14
2018-03-23T20:11:03.837Z,93883.14
2018-03-23T20:14:10.767Z,93877.58
2018-03-23T20:17:14.027Z,93876.51
2018-03-23T20:20:23.473Z,93879.36
2018-03-23T20:23:27.487Z,93879.81
2018-03-23T20:26:30.755Z,93877.79
2018-03-23T20:29:34.085Z,93876.34
2018-03-23T20:32:37.538Z,93881.57
2018-03-23T20:35:40.881Z,93874.94
2018-03-23T20:38:44.927Z,93872.48
2018-03-23T20:41:48.221Z,93874.10
2018-03-23T20:44:51.558Z,93869.55
2018-03-23T20:47:54.820Z,93868.56
2018-03-23T20:50:58.102Z,93863.53
2018-03-23T20:54:01.369Z,93862.07
2018-03-23T20:57:05.416Z,93862.84
2018-03-23T21:00:08.728Z,93858.29
2018-03-23T21:03:11.994Z,93854.89
2018-03-23T21:06:16.036Z,93846.23
2018-03-23T21:09:19.331Z,93839.27
2018-03-23T21:12:22.601Z,93832.03
2018-03-23T21:15:26.187Z,93829.68
2018-03-23T21:18:29.448Z,93831.66
2018-03-23T21:21:32.718Z,93833.91
2018-03-23T21:24:36.032Z,93829.48
2018-03-23T21:27:39.423Z,93831.27
2018-03-23T21:30:43.314Z,93825.58
2018-03-23T21:33:47.596Z,93826.69
2018-03-23T21:36:50.869Z,93817.88
2018-03-23T21:39:54.186Z,93812.58
2018-03-23T21:42:57.447Z,93817.30
2018-03-23T21:46:00.722Z,93821.63
2018-03-23T21:49:13.025Z,93819.52
2018-03-23T21:52:17.156Z,93811.89
2018-03-23T21:55:20.431Z,93813.38
2018-03-23T21:58:24.453Z,93812.19
2018-03-23T22:01:28.498Z,93809.95
2018-03-23T22:04:31.895Z,93807.91
2018-03-23T22:07:35.280Z,93803.73
2018-03-23T22:10:39.314Z,93799.80
2018-03-23T22:13:42.578Z,93794.17
2018-03-23T22:16:45.921Z,93799.69
2018-03-23T22:19:49.714Z,93801.39
2018-03-23T22:22:55.537Z,93792.88
2018-03-23T22:26:02.425Z,93797.76
2018-03-23T22:29:06.467Z,93801.53
2018-03-23T22:32:09.733Z,93794.78
2018-03-23T22:35:13.006Z,93788.89
2018-03-23T22:38:16.272Z,93789.30
2018-03-23T22:41:19.539Z,93789.45
2018-03-23T22:44:23.784Z,93778.23
2018-03-23T22:47:27.040Z,93783.20
2018-03-23T22:50:30.860Z,93774.48
2018-03-23T22:53:34.796Z,93776.98
2018-03-23T22:56:38.100Z,93770.64
2018-03-23T22:59:41.381Z,93771.89
2018-03-23T23:02:45.398Z,93764.88
2018-03-23T23:05:48.687Z,93763.63
2018-03-23T23:08:52.052Z,93762.94
2018-03-23T23:11:55.326Z,93758.53
2018-03-23T23:14:58.598Z,93755.39
2018-03-23T23:18:01.888Z,93751.61
2018-03-23T23:21:05.926Z,93757.53
2018-03-23T23:24:09.213Z,93749.50
2018-03-23T23:27:12.476Z,93740.19
2018-03-23T23:30:16.510Z,93742.56
2018-03-23T23:33:19.967Z,93743.05
2018-03-23T23:36:23.460Z,93737.18
2018-03-23T23:39:27.353Z,93744.27
2018-03-23T23:42:30.618Z,93735.84
2018-03-23T23:45:34.696Z,93731.23
2018-03-23T23:48:37.952Z,93730.55
2018-03-23T23:51:41.214Z,93728.59
2018-03-23T23:54:45.553Z,93727.69
2018-03-23T23:57:49.596Z,93724.45
